createdAt,value
2022-07-25T00:01:32.808Z,23.05
2022-07-25T00:03:59.645Z,23.02
2022-07-25T00:06:26.277Z,22.96
2022-07-25T00:08:52.808Z,22.94
2022-07-25T00:11:19.390Z,22.91
2022-07-25T00:13:45.931Z,22.88
2022-07-25T00:16:12.531Z,22.85
2022-07-25T00:18:39.129Z,22.82
2022-07-25T00:21:05.945Z,22.79
2022-07-25T00:23:32.481Z,22.76
2022-07-25T00:25:59.023Z,22.74
2022-07-25T00:28:25.592Z,22.67
2022-07-25T00:30:52.243Z,22.65
2022-07-25T00:33:18.911Z,22.59
2022-07-25T00:35:45.503Z,22.57
2022-07-25T00:38:12.644Z,22.49
2022-07-25T00:40:39.225Z,22.45
2022-07-25T00:43:05.850Z,22.42
2022-07-25T00:45:32.476Z,22.37
2022-07-25T00:47:59.200Z,22.32
2022-07-25T00:50:25.916Z,22.24
2022-07-25T00:52:52.757Z,22.17
2022-07-25T00:55:20.938Z,22.13
2022-07-25T00:57:47.518Z,22.05
2022-07-25T01:00:15.294Z,21.99
2022-07-25T01:02:42.386Z,21.93
2022-07-25T01:05:10.914Z,21.88
2022-07-25T01:07:39.031Z,21.82
2022-07-25T01:10:07.401Z,21.79
2022-07-25T01:12:54.503Z,21.75
2022-07-25T01:15:23.283Z,21.70
2022-07-25T01:17:50.647Z,21.65
2022-07-25T01:20:21.829Z,21.56
2022-07-25T01:22:48.787Z,21.50
2022-07-25T01:25:15.753Z,21.42
2022-07-25T01:27:42.622Z,21.36
2022-07-25T01:30:11.844Z,21.29
2022-07-25T01:32:39.378Z,21.22
2022-07-25T01:35:07.765Z,21.15
2022-07-25T01:37:34.579Z,21.04
2022-07-25T01:40:01.529Z,20.93
2022-07-25T01:42:28.474Z,20.87
2022-07-25T01:44:55.671Z,20.83
2022-07-25T01:47:22.367Z,20.75
2022-07-25T01:49:49.212Z,20.67
2022-07-25T01:52:15.887Z,20.61
2022-07-25T01:54:43.465Z,20.55
2022-07-25T01:57:11.461Z,20.48
2022-07-25T01:59:40.237Z,20.44
2022-07-25T02:02:08.183Z,20.35
2022-07-25T02:04:35.854Z,20.30
2022-07-25T02:07:02.624Z,20.19
2022-07-25T02:09:29.522Z,20.09
2022-07-25T02:11:56.275Z,20.01
2022-07-25T02:14:23.548Z,19.93
2022-07-25T02:16:50.305Z,19.87
2022-07-25T02:19:16.923Z,19.81
2022-07-25T02:21:43.496Z,19.73
2022-07-25T02:24:10.549Z,19.71
2022-07-25T02:26:37.254Z,19.67
2022-07-25T02:29:04.435Z,19.63
2022-07-25T02:31:31.120Z,19.54
2022-07-25T02:33:57.648Z,19.51
2022-07-25T02:36:24.231Z,19.44
2022-07-25T02:38:50.817Z,19.39
2022-07-25T02:41:17.364Z,19.30
2022-07-25T02:43:43.872Z,19.27
2022-07-25T02:46:10.521Z,19.18
2022-07-25T02:48:37.114Z,19.14
2022-07-25T02:51:04.135Z,19.04
2022-07-25T02:53:55.524Z,19.04
2022-07-25T02:56:17.315Z,19.02
2022-07-25T02:58:43.860Z,18.97
2022-07-25T03:01:10.680Z,18.92
2022-07-25T03:03:37.577Z,18.82
2022-07-25T03:06:04.587Z,18.76
2022-07-25T03:08:31.275Z,18.74
2022-07-25T03:10:58.674Z,18.71
2022-07-25T03:13:25.727Z,18.69
2022-07-25T03:15:52.266Z,18.66
2022-07-25T03:18:19.405Z,18.60
2022-07-25T03:20:45.917Z,18.56
2022-07-25T03:23:12.527Z,18.49
2022-07-25T03:25:39.057Z,18.43
2022-07-25T03:28:05.784Z,18.42
2022-07-25T03:30:32.345Z,18.42
2022-07-25T03:32:58.913Z,18.37
2022-07-25T03:35:26.151Z,18.27
2022-07-25T03:37:53.339Z,18.22
2022-07-25T03:40:20.636Z,18.21
2022-07-25T03:42:47.179Z,18.19
2022-07-25T03:45:13.735Z,18.19
2022-07-25T03:47:40.273Z,18.20
2022-07-25T03:50:08.132Z,18.21
2022-07-25T03:52:35.708Z,18.22
2022-07-25T03:55:02.313Z,18.22
2022-07-25T03:57:28.835Z,18.21
2022-07-25T03:59:55.418Z,18.18
2022-07-25T04:02:22.026Z,18.15
2022-07-25T04:04:48.682Z,18.16
2022-07-25T04:07:15.323Z,18.19
2022-07-25T04:09:42.376Z,18.23
2022-07-25T04:12:09.139Z,18.29
2022-07-25T04:14:35.675Z,18.32
2022-07-25T04:17:02.390Z,18.30
2022-07-25T04:19:29.113Z,18.33
2022-07-25T04:21:55.855Z,18.37
2022-07-25T04:24:22.491Z,18.40
2022-07-25T04:26:49.036Z,18.44
2022-07-25T04:29:16.011Z,18.48
2022-07-25T04:31:42.635Z,18.52
2022-07-25T04:34:09.524Z,18.57
2022-07-25T04:36:36.392Z,18.62
2022-07-25T04:39:02.987Z,18.69
2022-07-25T04:41:30.168Z,18.76
2022-07-25T04:43:56.699Z,18.81
2022-07-25T04:46:23.817Z,18.88
2022-07-25T04:48:50.944Z,18.96
2022-07-25T04:51:18.158Z,19.01
2022-07-25T04:53:44.968Z,19.08
2022-07-25T04:56:11.524Z,19.17
2022-07-25T04:58:38.107Z,19.24
2022-07-25T05:01:05.641Z,19.35
2022-07-25T05:03:32.235Z,19.43
2022-07-25T05:05:58.850Z,19.54
2022-07-25T05:08:25.351Z,19.64
2022-07-25T05:10:51.902Z,19.72
2022-07-25T05:13:20.635Z,19.82
2022-07-25T05:15:47.374Z,19.93
2022-07-25T05:18:13.969Z,20.05
2022-07-25T05:20:40.524Z,20.14
2022-07-25T05:23:07.085Z,20.23
2022-07-25T05:25:33.849Z,20.31
2022-07-25T05:28:00.527Z,20.41
2022-07-25T05:30:27.617Z,20.49
2022-07-25T05:32:54.552Z,20.58
2022-07-25T05:35:21.172Z,20.69
2022-07-25T05:37:47.706Z,20.78
2022-07-25T05:40:14.349Z,20.87
2022-07-25T05:42:40.865Z,20.96
2022-07-25T05:45:07.798Z,21.05
2022-07-25T05:47:34.342Z,21.14
2022-07-25T05:50:01.736Z,21.22
2022-07-25T05:52:28.316Z,21.33
2022-07-25T05:54:54.865Z,21.43
2022-07-25T05:57:21.411Z,21.51
2022-07-25T05:59:48.012Z,21.59
2022-07-25T06:02:14.642Z,21.68
2022-07-25T06:04:41.341Z,21.77
2022-07-25T06:07:07.877Z,21.86
2022-07-25T06:09:35.276Z,21.94
2022-07-25T06:12:01.850Z,22.02
2022-07-25T06:14:29.676Z,22.09
2022-07-25T06:16:57.008Z,22.18
2022-07-25T06:19:23.693Z,22.25
2022-07-25T06:21:50.372Z,22.35
2022-07-25T06:24:17.369Z,22.43
2022-07-25T06:26:43.983Z,22.50
2022-07-25T06:29:10.569Z,22.58
2022-07-25T06:31:37.153Z,22.66
2022-07-25T06:34:04.160Z,22.74
2022-07-25T06:36:32.726Z,22.82
2022-07-25T06:38:59.962Z,22.87
2022-07-25T06:41:26.619Z,22.93
2022-07-25T06:43:53.192Z,23.03
2022-07-25T06:46:19.885Z,23.14
2022-07-25T06:48:46.900Z,23.24
2022-07-25T06:51:13.564Z,23.34
2022-07-25T06:53:40.123Z,23.42
2022-07-25T06:56:06.824Z,23.50
2022-07-25T06:58:33.397Z,23.55
2022-07-25T07:01:01.176Z,23.60
2022-07-25T07:03:28.273Z,23.67
2022-07-25T07:05:55.189Z,23.75
2022-07-25T07:08:21.904Z,23.82
2022-07-25T07:10:48.530Z,23.89
2022-07-25T07:13:23.692Z,23.98
2022-07-25T07:15:51.130Z,24.06
2022-07-25T07:18:18.874Z,24.13
2022-07-25T07:20:46.044Z,24.20
2022-07-25T07:23:16.698Z,24.26
2022-07-25T07:25:46.983Z,24.33
2022-07-25T07:28:14.064Z,24.41
2022-07-25T07:33:27.287Z,24.54
2022-07-25T07:35:55.974Z,24.61
2022-07-25T07:38:24.040Z,24.66
2022-07-25T07:40:50.596Z,24.73
2022-07-25T07:43:17.140Z,24.80
2022-07-25T07:45:44.123Z,24.85
2022-07-25T07:48:10.822Z,24.92
2022-07-25T07:50:37.831Z,25.02
2022-07-25T07:53:04.466Z,25.13
2022-07-25T07:55:46.047Z,25.20
2022-07-25T07:58:15.753Z,25.29
2022-07-25T08:00:44.175Z,25.38
2022-07-25T08:03:11.026Z,25.45
2022-07-25T08:05:43.488Z,25.54
2022-07-25T08:08:12.996Z,25.61
2022-07-25T08:10:45.497Z,25.70
2022-07-25T08:13:22.646Z,25.79
2022-07-25T08:15:51.786Z,25.84
2022-07-25T08:18:19.020Z,25.86
2022-07-25T08:20:46.951Z,25.96
2022-07-25T08:23:14.477Z,26.07
2022-07-25T08:25:42.620Z,26.21
2022-07-25T08:28:09.186Z,26.29
2022-07-25T08:30:37.514Z,26.38
2022-07-25T08:33:06.655Z,26.48
2022-07-25T08:35:34.400Z,26.57
2022-07-25T08:38:02.107Z,26.67
2022-07-25T08:40:31.393Z,26.81
2022-07-25T08:42:58.723Z,26.87
2022-07-25T08:45:28.003Z,26.91
2022-07-25T08:47:56.333Z,26.97
2022-07-25T08:50:26.769Z,27.03
2022-07-25T08:53:10.086Z,27.12
2022-07-25T08:55:40.372Z,27.22
2022-07-25T08:58:06.914Z,27.36
2022-07-25T09:00:33.547Z,27.48
2022-07-25T09:03:06.334Z,27.58
2022-07-25T09:05:34.087Z,27.71
2022-07-25T09:08:11.563Z,27.86
2022-07-25T09:10:39.416Z,27.98
2022-07-25T09:13:07.941Z,27.97
2022-07-25T09:15:35.785Z,28.04
2022-07-25T09:18:06.028Z,28.09
2022-07-25T09:20:43.282Z,28.21
2022-07-25T09:23:11.404Z,28.25
2022-07-25T09:25:38.696Z,28.28
2022-07-25T09:28:16.525Z,28.38
2022-07-25T09:30:56.965Z,28.49
2022-07-25T09:33:26.166Z,28.57
2022-07-25T09:35:53.854Z,28.64
2022-07-25T09:38:21.898Z,28.75
2022-07-25T09:40:59.873Z,28.93
2022-07-25T09:43:37.769Z,29.07
2022-07-25T09:46:05.069Z,29.14
2022-07-25T09:48:32.277Z,29.24
2022-07-25T09:50:59.850Z,29.38
2022-07-25T09:53:27.022Z,29.43
2022-07-25T09:55:55.124Z,29.44
2022-07-25T09:58:21.707Z,29.43
2022-07-25T10:00:48.622Z,29.48
2022-07-25T10:03:51.460Z,29.57
2022-07-25T10:06:28.288Z,29.73
2022-07-25T10:08:55.142Z,29.93
2022-07-25T10:11:26.215Z,30.09
2022-07-25T10:13:54.444Z,30.26
2022-07-25T10:16:23.964Z,30.36
2022-07-25T10:18:53.720Z,30.48
2022-07-25T10:21:26.694Z,30.55
2022-07-25T10:24:09.236Z,30.55
2022-07-25T10:26:51.327Z,30.51
2022-07-25T10:29:17.895Z,30.47
2022-07-25T10:31:51.628Z,30.46
2022-07-25T10:34:30.252Z,30.51
2022-07-25T10:36:57.295Z,30.56
2022-07-25T10:39:24.240Z,30.62
2022-07-25T10:41:55.808Z,30.66
2022-07-25T10:44:22.555Z,30.75
2022-07-25T10:46:50.329Z,30.86
2022-07-25T10:49:32.217Z,30.81
2022-07-25T10:52:01.285Z,30.87
2022-07-25T10:54:33.642Z,30.99
2022-07-25T10:57:00.329Z,31.01
2022-07-25T10:59:33.664Z,31.15
2022-07-25T11:02:01.110Z,31.32
2022-07-25T11:04:28.017Z,31.36
2022-07-25T11:06:54.623Z,31.49
2022-07-25T11:09:27.348Z,31.53
2022-07-25T11:11:59.311Z,31.55
2022-07-25T11:14:33.756Z,31.54
2022-07-25T11:17:15.186Z,31.51
2022-07-25T11:19:55.230Z,31.54
2022-07-25T11:22:21.875Z,31.65
2022-07-25T11:24:48.615Z,31.82
2022-07-25T11:27:35.581Z,32.07
2022-07-25T11:30:08.557Z,32.31
2022-07-25T11:32:43.078Z,32.47
2022-07-25T11:35:10.783Z,32.61
2022-07-25T11:37:39.595Z,32.77
2022-07-25T11:40:07.418Z,32.77
2022-07-25T11:42:48.628Z,32.87
2022-07-25T11:45:22.287Z,32.97
2022-07-25T11:48:01.994Z,32.95
2022-07-25T11:50:35.147Z,32.84
2022-07-25T11:53:07.214Z,32.73
2022-07-25T11:55:38.116Z,32.71
2022-07-25T11:58:05.763Z,32.58
2022-07-25T12:00:39.720Z,32.41
2022-07-25T12:03:19.505Z,32.39
2022-07-25T12:05:47.120Z,32.46
2022-07-25T12:08:19.606Z,32.65
2022-07-25T12:10:47.927Z,32.76
2022-07-25T12:13:24.478Z,32.86
2022-07-25T12:15:51.155Z,32.92
2022-07-25T12:18:18.840Z,32.94
2022-07-25T12:20:45.427Z,33.07
2022-07-25T12:23:13.274Z,33.16
2022-07-25T12:25:45.088Z,33.27
2022-07-25T12:28:12.238Z,33.24
2022-07-25T12:30:40.023Z,33.10
2022-07-25T12:33:07.417Z,33.08
2022-07-25T12:35:34.549Z,33.06
2022-07-25T12:38:01.072Z,33.15
2022-07-25T12:40:27.666Z,33.30
2022-07-25T12:42:54.559Z,33.44
2022-07-25T12:45:21.773Z,33.63
2022-07-25T12:47:48.356Z,33.48
2022-07-25T12:50:16.747Z,33.35
2022-07-25T12:52:44.891Z,33.44
2022-07-25T12:55:14.241Z,33.61
2022-07-25T12:57:41.189Z,33.72
2022-07-25T13:00:11.515Z,33.86
2022-07-25T13:02:38.543Z,33.99
2022-07-25T13:05:06.449Z,34.03
2022-07-25T13:07:36.479Z,34.14
2022-07-25T13:10:04.386Z,34.24
2022-07-25T13:12:31.279Z,34.31
2022-07-25T13:14:57.975Z,34.38
2022-07-25T13:17:27.437Z,34.47
2022-07-25T13:19:55.392Z,34.45
2022-07-25T13:22:21.968Z,34.36
2022-07-25T13:24:48.510Z,34.34
2022-07-25T13:27:18.483Z,34.40
2022-07-25T13:29:45.071Z,34.54
2022-07-25T13:32:12.040Z,34.68
2022-07-25T13:34:38.805Z,34.73
2022-07-25T13:37:05.576Z,34.88
2022-07-25T13:39:32.100Z,35.11
2022-07-25T13:41:58.629Z,35.13
2022-07-25T13:44:25.178Z,35.06
2022-07-25T13:46:51.755Z,34.98
2022-07-25T13:49:19.234Z,35.06
2022-07-25T13:51:45.975Z,35.23
2022-07-25T13:54:12.936Z,35.39
2022-07-25T13:56:41.415Z,35.35
2022-07-25T13:59:08.495Z,35.25
2022-07-25T14:01:35.682Z,35.27
2022-07-25T14:04:02.248Z,35.26
2022-07-25T14:06:28.791Z,35.31
2022-07-25T14:08:56.077Z,35.34
2022-07-25T14:11:27.355Z,35.41
2022-07-25T14:13:58.173Z,35.51
2022-07-25T14:16:26.094Z,35.56
2022-07-25T14:18:54.435Z,35.58
2022-07-25T14:21:21.133Z,35.57
2022-07-25T14:23:47.677Z,35.45
2022-07-25T14:26:14.245Z,35.41
2022-07-25T14:28:40.826Z,35.14
2022-07-25T14:31:07.478Z,35.08
2022-07-25T14:33:39.744Z,35.12
2022-07-25T14:36:08.611Z,35.26
2022-07-25T14:38:35.253Z,35.37
2022-07-25T14:41:05.685Z,35.55
2022-07-25T14:43:35.701Z,35.83
2022-07-25T14:46:02.243Z,36.20
2022-07-25T14:48:28.984Z,36.56
2022-07-25T14:50:55.806Z,36.96
2022-07-25T14:53:22.354Z,37.29
2022-07-25T14:55:48.972Z,37.26
2022-07-25T14:58:15.782Z,37.29
2022-07-25T15:00:43.568Z,37.32
2022-07-25T15:03:10.347Z,37.37
2022-07-25T15:05:38.384Z,37.70
2022-07-25T15:08:06.351Z,38.08
2022-07-25T15:10:33.043Z,38.32
2022-07-25T15:13:28.265Z,38.64
2022-07-25T15:15:46.903Z,39.16
2022-07-25T15:18:14.232Z,39.61
2022-07-25T15:20:41.081Z,39.02
2022-07-25T15:23:07.712Z,38.27
2022-07-25T15:26:00.761Z,37.86
2022-07-25T15:28:22.109Z,37.70
2022-07-25T15:30:48.819Z,37.72
2022-07-25T15:33:15.711Z,37.76
2022-07-25T15:35:44.668Z,37.66
2022-07-25T15:38:11.727Z,37.35
2022-07-25T15:40:38.324Z,37.08
2022-07-25T15:43:05.243Z,36.75
2022-07-25T15:45:33.907Z,36.58
2022-07-25T15:48:01.655Z,36.44
2022-07-25T15:50:28.188Z,36.27
2022-07-25T15:52:54.769Z,36.19
2022-07-25T15:55:21.402Z,36.10
2022-07-25T15:57:47.912Z,35.90
2022-07-25T16:00:14.699Z,35.70
2022-07-25T16:02:41.203Z,35.58
2022-07-25T16:05:08.000Z,35.40
2022-07-25T16:07:35.909Z,35.32
2022-07-25T16:10:02.586Z,35.23
2022-07-25T16:12:29.167Z,35.07
2022-07-25T16:14:55.944Z,34.92
2022-07-25T16:17:22.892Z,34.67
2022-07-25T16:19:49.496Z,34.56
2022-07-25T16:22:16.075Z,34.42
2022-07-25T16:24:42.692Z,34.47
2022-07-25T16:27:09.967Z,34.50
2022-07-25T16:29:37.122Z,34.39
2022-07-25T16:32:04.019Z,34.38
2022-07-25T16:34:30.539Z,34.38
2022-07-25T16:36:57.408Z,34.37
2022-07-25T16:39:24.074Z,34.35
2022-07-25T16:41:50.664Z,34.30
2022-07-25T16:44:17.250Z,34.21
2022-07-25T16:46:44.010Z,34.14
2022-07-25T16:49:13.362Z,34.13
2022-07-25T16:51:40.048Z,34.22
2022-07-25T16:54:06.619Z,34.26
2022-07-25T16:56:33.632Z,34.28
2022-07-25T16:59:00.971Z,34.26
2022-07-25T17:01:27.602Z,34.31
2022-07-25T17:03:54.531Z,34.36
2022-07-25T17:06:21.478Z,34.43
2022-07-25T17:08:48.058Z,34.46
2022-07-25T17:11:14.596Z,34.39
2022-07-25T17:13:41.291Z,34.38
2022-07-25T17:16:09.661Z,34.37
2022-07-25T17:18:37.353Z,34.34
2022-07-25T17:21:04.828Z,34.31
2022-07-25T17:23:31.956Z,34.21
2022-07-25T17:25:58.861Z,34.06
2022-07-25T17:28:25.684Z,34.00
2022-07-25T17:30:52.285Z,33.84
2022-07-25T17:33:19.025Z,33.68
2022-07-25T17:35:45.560Z,33.56
2022-07-25T17:38:13.045Z,33.40
2022-07-25T17:40:41.140Z,33.29
2022-07-25T17:43:07.701Z,33.20
2022-07-25T17:45:34.358Z,33.07
2022-07-25T17:48:00.905Z,32.99
2022-07-25T17:50:29.604Z,32.88
2022-07-25T17:53:00.535Z,32.76
2022-07-25T17:55:28.834Z,32.61
2022-07-25T17:57:55.747Z,32.45
2022-07-25T18:00:23.629Z,32.35
2022-07-25T18:02:50.532Z,32.18
2022-07-25T18:05:17.910Z,31.97
2022-07-25T18:07:45.715Z,31.81
2022-07-25T18:10:13.301Z,31.63
2022-07-25T18:12:39.854Z,31.42
2022-07-25T18:15:07.387Z,31.26
2022-07-25T18:17:34.055Z,31.13
2022-07-25T18:20:00.587Z,31.00
2022-07-25T18:22:27.097Z,30.74
2022-07-25T18:24:53.658Z,30.70
2022-07-25T18:27:20.170Z,30.56
2022-07-25T18:29:46.838Z,30.41
2022-07-25T18:32:13.599Z,30.16
2022-07-25T18:34:40.253Z,29.86
2022-07-25T18:37:06.834Z,29.69
2022-07-25T18:39:34.439Z,29.53
2022-07-25T18:42:01.068Z,29.44
2022-07-25T18:44:27.605Z,29.23
2022-07-25T18:46:54.277Z,29.04
2022-07-25T18:49:22.215Z,28.93
2022-07-25T18:51:48.767Z,28.77
2022-07-25T18:54:15.993Z,28.60
2022-07-25T18:56:43.009Z,28.48
2022-07-25T18:59:09.979Z,28.35
2022-07-25T19:01:38.578Z,28.15
2022-07-25T19:04:05.599Z,28.10
2022-07-25T19:06:32.419Z,28.00
2022-07-25T19:08:58.953Z,27.93
2022-07-25T19:11:26.143Z,27.81
2022-07-25T19:13:52.683Z,27.66
2022-07-25T19:16:20.597Z,27.60
2022-07-25T19:18:47.837Z,27.44
2022-07-25T19:21:15.341Z,27.25
2022-07-25T19:23:45.774Z,27.11
2022-07-25T19:26:16.810Z,26.91
2022-07-25T19:28:43.394Z,26.71
2022-07-25T19:31:10.153Z,26.65
2022-07-25T19:33:36.795Z,26.56
2022-07-25T19:36:04.352Z,26.44
2022-07-25T19:38:31.036Z,26.28
2022-07-25T19:40:57.660Z,26.09
2022-07-25T19:43:24.211Z,25.89
2022-07-25T19:45:51.058Z,25.73
2022-07-25T19:48:17.921Z,25.55
2022-07-25T19:50:45.673Z,25.42
2022-07-25T19:53:12.693Z,25.27
2022-07-25T19:55:39.215Z,25.18
2022-07-25T19:58:08.370Z,25.06
2022-07-25T20:00:35.087Z,24.88
2022-07-25T20:03:01.694Z,24.77
2022-07-25T20:05:28.339Z,24.59
2022-07-25T20:07:54.932Z,24.47
2022-07-25T20:10:23.669Z,24.40
2022-07-25T20:12:50.534Z,24.27
2022-07-25T20:15:17.136Z,24.20
2022-07-25T20:17:43.777Z,24.12
2022-07-25T20:20:10.996Z,23.99
2022-07-25T20:22:37.785Z,23.90
2022-07-25T20:25:09.207Z,23.83
2022-07-25T20:27:36.212Z,23.77
2022-07-25T20:30:04.558Z,23.74
2022-07-25T20:32:31.147Z,23.69
2022-07-25T20:34:57.827Z,23.58
2022-07-25T20:37:24.509Z,23.52
2022-07-25T20:39:52.047Z,23.41
2022-07-25T20:42:18.685Z,23.35
2022-07-25T20:44:45.558Z,23.26
2022-07-25T20:47:14.749Z,23.20
2022-07-25T20:49:41.494Z,23.13
2022-07-25T20:52:08.771Z,23.01
2022-07-25T20:54:36.806Z,22.99
2022-07-25T20:57:04.327Z,22.95
2022-07-25T20:59:31.591Z,22.76
2022-07-25T21:01:58.353Z,22.69
2022-07-25T21:04:24.903Z,22.68
2022-07-25T21:06:53.016Z,22.59
2022-07-25T21:09:23.104Z,22.54
2022-07-25T21:11:49.698Z,22.47
2022-07-25T21:14:16.298Z,22.43
2022-07-25T21:16:42.907Z,22.39
2022-07-25T21:19:09.882Z,22.32
2022-07-25T21:21:36.808Z,22.25
2022-07-25T21:24:04.204Z,22.16
2022-07-25T21:26:30.732Z,22.13
2022-07-25T21:28:57.319Z,22.06
2022-07-25T21:31:24.243Z,22.04
2022-07-25T21:33:52.119Z,22.00
2022-07-25T21:36:19.003Z,21.99
2022-07-25T21:38:46.236Z,22.00
2022-07-25T21:41:12.990Z,21.87
2022-07-25T21:43:40.530Z,21.84
2022-07-25T21:46:07.207Z,21.81
2022-07-25T21:48:54.322Z,21.76
2022-07-25T21:51:23.018Z,21.70
2022-07-25T21:53:51.371Z,21.58
2022-07-25T21:56:18.401Z,21.54
2022-07-25T21:58:45.027Z,21.51
2022-07-25T22:01:11.899Z,21.49
2022-07-25T22:03:40.371Z,21.42
2022-07-25T22:06:07.441Z,21.35
2022-07-25T22:08:34.113Z,21.35
2022-07-25T22:11:00.729Z,21.37
2022-07-25T22:13:43.235Z,21.40
2022-07-25T22:16:10.061Z,21.41
2022-07-25T22:18:36.710Z,21.41
2022-07-25T22:21:03.432Z,21.44
2022-07-25T22:23:30.010Z,21.45
2022-07-25T22:25:56.550Z,21.46
2022-07-25T22:28:23.126Z,21.46
2022-07-25T22:30:49.724Z,21.42
2022-07-25T22:33:16.294Z,21.34
2022-07-25T22:35:42.841Z,21.33
2022-07-25T22:38:09.487Z,21.34
2022-07-25T22:40:36.151Z,21.35
2022-07-25T22:43:02.860Z,21.32
2022-07-25T22:45:29.489Z,21.21
2022-07-25T22:47:56.508Z,21.18
2022-07-25T22:50:23.153Z,21.16
2022-07-25T22:52:49.820Z,21.21
2022-07-25T22:55:16.529Z,21.21
2022-07-25T22:57:43.084Z,21.23
2022-07-25T23:00:14.233Z,21.20
2022-07-25T23:02:40.888Z,21.42
2022-07-25T23:05:08.172Z,21.39
2022-07-25T23:07:35.343Z,21.21
2022-07-25T23:10:02.409Z,21.12
2022-07-25T23:12:28.923Z,21.07
2022-07-25T23:14:55.640Z,20.92
2022-07-25T23:17:22.554Z,20.81
2022-07-25T23:19:52.007Z,20.66
2022-07-25T23:22:20.012Z,20.57
2022-07-25T23:24:46.977Z,20.56
2022-07-25T23:27:13.924Z,20.53
2022-07-25T23:29:40.942Z,20.50
2022-07-25T23:32:07.762Z,20.46
2022-07-25T23:34:35.582Z,20.48
2022-07-25T23:37:02.959Z,20.47
2022-07-25T23:39:29.572Z,20.47
2022-07-25T23:41:56.133Z,20.44
2022-07-25T23:44:22.668Z,20.46
2022-07-25T23:46:50.813Z,20.55
2022-07-25T23:49:17.438Z,20.61
2022-07-25T23:51:44.067Z,20.63
2022-07-25T23:54:10.627Z,20.59
2022-07-25T23:56:37.215Z,20.52
2022-07-25T23:59:04.386Z,20.49
